Terminal Aerodrome Forecast
Issued by NWS

Current Version | Previous Version | Graphics & Text | Print | Product List | Glossary On
Versions: 1 2 3 4 5 6 7 8 9 10 11 12 13 14
000
FTUS41 KRNK 231133
TAFLWB
TAF
KLWB 231133Z 2312/2412 22005KT P6SM SCT025 BKN050
      TEMPO 2316/2318 4SM SHRA OVC025
     FM231800 24011G20KT P6SM BKN040
     FM240200 20008KT 3SM -SHRA OVC040
     FM240700 23010G18KT 3SM SHRA OVC015
     FM240900 26010KT 4SM -SHRA OVC020=

USA.gov is the U.S. government's official web portal to all federal, state and local government web resources and services.